Tequesta, FL (33469)

6:23 PM EST on February 01, 2015 (GMT -0500)
KFLTEQUE4 | Change Station
CLOSE
Current Station
Personal Weather Station
Location: Tequesta, FL
Elevation: 20 ft
Nearby Weather Stations
Active Advisory: Coastal Hazard Statement

Elev 20 ft 26.96 °N, 80.08 °W | Updated 10 seconds ago

Partly Cloudy
Partly Cloudy
67.8 °F
Feels Like 67.8 °F
N
0.9
Wind Variable Wind from SW
Gusts 0.0 mph

Today
High -- | Low -- °F
--% Chance of Precip.
Yesterday
High -- | Low -- °F
Precip. -- in
7:06 AM 6:02 PM
Waxing Gibbous, 96% visible
Pressure 30.12 in
Visibility 7.0 miles
Clouds Scattered Clouds 3000 ft
Dew Point 61 °F
Humidity 80%
Rainfall 0.00 in
Snow Depth Not available.
UV 0 out of 12
Pollen 8.30 out of 12
Air Quality Not available.
Flu Activity Not available.
METAR KSUA 012250Z 13012KT 7SM SCT030 21/14 A3012

More Conditions Fewer Conditions

Pressure 30.12 in
Visibility 7.0 miles
Clouds Scattered Clouds 3000 ft
Dew Point 61 °F
Humidity 80%
Rainfall 0.00 in
Snow Depth Not available.
UV 0 out of 12
Pollen 8.30 out of 12
Air Quality Not available.
Flu Activity Not available.
METAR KSUA 012250Z 13012KT 7SM SCT030 21/14 A3012

More Conditions Fewer Conditions

10-Day Weather Forecast

Almanac

Astronomy

Feb. 01, 2015 Rise Set
Actual Time
Civil Twilight
Nautical Twilight
Astronomical Twilight
Moon
Length of Visible Light
Length of Day
Tomorrow will be .
, % of the Moon is Illuminated

Today's Extremes

State Highs State Lows

Community

WunderPhotos

Upload Photos

1,792,604 photos uploaded!

WunderBlogs® & News

Nearby

Air Quality

  Air Quality AQ Index Pollutant
Not available.

Snow Depth

Station Depth Elevation

Earthquake Activity

City Distance Mag. Time & Date
Minimum magnitude displayed is 2.5.

Coastal Water Temperatures

Place Temperature

Nearby Weather Stations